createdAt,value
2019-01-29T00:00:43.629Z,7.23
2019-01-29T00:03:12.905Z,14.73
2019-01-29T00:05:42.137Z,8.03
2019-01-29T00:08:11.518Z,9.07
2019-01-29T00:10:40.733Z,8.93
2019-01-29T00:13:10.008Z,9.57
2019-01-29T00:15:39.291Z,6.63
2019-01-29T00:18:08.633Z,8.07
2019-01-29T00:20:37.831Z,9.83
2019-01-29T00:23:07.171Z,8.50
2019-01-29T00:25:36.445Z,7.63
2019-01-29T00:28:05.793Z,8.27
2019-01-29T00:30:35.170Z,8.30
2019-01-29T00:33:04.623Z,10.57
2019-01-29T00:35:33.924Z,10.67
2019-01-29T00:38:03.267Z,8.13
2019-01-29T00:40:32.469Z,7.57
2019-01-29T00:43:01.871Z,10.07
2019-01-29T00:45:31.190Z,10.07
2019-01-29T00:48:00.525Z,8.67
2019-01-29T00:50:29.996Z,8.40
2019-01-29T00:52:59.262Z,4.83
2019-01-29T00:55:28.542Z,5.73
2019-01-29T00:57:57.975Z,11.00
2019-01-29T01:00:27.651Z,8.83
2019-01-29T01:02:56.891Z,10.27
2019-01-29T01:05:26.133Z,8.23
2019-01-29T01:07:55.362Z,6.87
2019-01-29T01:10:24.864Z,10.47
2019-01-29T01:12:54.262Z,9.10
2019-01-29T01:15:23.499Z,9.17
2019-01-29T01:17:52.774Z,10.33
2019-01-29T01:20:24.043Z,10.20
2019-01-29T01:22:53.412Z,10.30
2019-01-29T01:25:22.673Z,8.73
2019-01-29T01:27:52.054Z,7.97
2019-01-29T01:30:21.398Z,8.50
2019-01-29T01:32:50.921Z,17.97
2019-01-29T01:35:20.146Z,11.40
2019-01-29T01:37:49.487Z,9.73
2019-01-29T01:40:24.192Z,9.00
2019-01-29T01:42:53.442Z,10.87
2019-01-29T01:45:22.698Z,12.63
2019-01-29T01:47:52.585Z,7.13
2019-01-29T01:50:22.516Z,10.67
2019-01-29T01:53:43.505Z,13.07
2019-01-29T01:56:13.564Z,9.00
2019-01-29T01:59:01.074Z,10.00
2019-01-29T02:01:30.340Z,9.47
2019-01-29T02:03:59.687Z,10.10
2019-01-29T02:06:29.273Z,7.43
2019-01-29T02:08:58.503Z,18.63
2019-01-29T02:11:27.876Z,11.77
2019-01-29T02:13:57.118Z,9.17
2019-01-29T02:16:26.478Z,9.60
2019-01-29T02:18:55.707Z,12.10
2019-01-29T02:21:24.972Z,10.57
2019-01-29T02:23:54.199Z,19.23
2019-01-29T02:26:23.446Z,9.67
2019-01-29T02:28:52.676Z,10.83
2019-01-29T02:31:22.028Z,10.63
2019-01-29T02:33:51.376Z,11.97
2019-01-29T02:36:20.603Z,11.33
2019-01-29T02:38:49.818Z,7.33
2019-01-29T02:41:19.206Z,12.83
2019-01-29T02:43:48.537Z,13.30
2019-01-29T02:46:17.861Z,6.43
2019-01-29T02:48:47.199Z,8.37
2019-01-29T02:51:17.951Z,9.63
2019-01-29T02:53:47.373Z,10.17
2019-01-29T02:56:16.610Z,10.70
2019-01-29T02:58:45.810Z,10.43
2019-01-29T03:01:15.042Z,13.37
2019-01-29T03:03:44.237Z,8.87
2019-01-29T03:06:13.833Z,12.37
2019-01-29T03:08:43.037Z,7.13
2019-01-29T03:11:12.299Z,12.43
2019-01-29T03:13:41.703Z,6.90
2019-01-29T03:16:11.047Z,7.33
2019-01-29T03:18:40.252Z,7.33
2019-01-29T03:21:09.747Z,10.90
2019-01-29T03:23:39.062Z,9.73
2019-01-29T03:26:08.454Z,8.77
2019-01-29T03:28:37.906Z,10.43
2019-01-29T03:31:07.146Z,7.83
2019-01-29T03:33:36.424Z,7.63
2019-01-29T03:36:05.787Z,10.33
2019-01-29T03:38:35.021Z,10.13
2019-01-29T03:41:04.260Z,16.23
2019-01-29T03:43:33.587Z,10.77
2019-01-29T03:46:02.835Z,7.40
2019-01-29T03:48:32.058Z,7.37
2019-01-29T03:51:03.299Z,10.47
2019-01-29T03:53:38.153Z,9.73
2019-01-29T03:56:03.377Z,12.60
2019-01-29T03:58:32.620Z,12.60
2019-01-29T04:01:01.873Z,12.60
2019-01-29T04:03:31.286Z,6.73
2019-01-29T04:06:00.550Z,9.03
2019-01-29T04:08:29.891Z,8.97
2019-01-29T04:10:59.115Z,12.83
2019-01-29T04:13:28.437Z,10.57
2019-01-29T04:15:57.722Z,6.80
2019-01-29T04:18:27.048Z,9.73
2019-01-29T04:20:56.419Z,10.13
2019-01-29T04:23:25.756Z,9.50
2019-01-29T04:25:55.123Z,9.70
2019-01-29T04:28:24.321Z,9.20
2019-01-29T04:30:53.770Z,8.83
2019-01-29T04:33:22.979Z,8.67
2019-01-29T04:35:52.220Z,7.63
2019-01-29T04:38:21.476Z,8.90
2019-01-29T04:40:50.718Z,4.47
2019-01-29T04:43:20.159Z,7.07
2019-01-29T04:45:49.378Z,8.73
2019-01-29T04:48:18.594Z,8.40
2019-01-29T04:50:47.861Z,8.47
2019-01-29T04:53:17.129Z,8.13
2019-01-29T04:55:46.361Z,7.07
2019-01-29T04:58:15.578Z,8.27
2019-01-29T05:00:44.950Z,7.00
2019-01-29T05:03:14.241Z,5.67
2019-01-29T05:05:43.478Z,11.60
2019-01-29T05:08:12.668Z,11.53
2019-01-29T05:10:41.924Z,10.13
2019-01-29T05:13:11.258Z,9.63
2019-01-29T05:15:40.605Z,9.73
2019-01-29T05:18:09.883Z,9.23
2019-01-29T05:20:39.165Z,8.67
2019-01-29T05:23:08.528Z,7.47
2019-01-29T05:25:37.889Z,7.53
2019-01-29T05:28:07.159Z,6.90
2019-01-29T05:30:36.430Z,6.33
2019-01-29T05:33:05.631Z,7.77
2019-01-29T05:35:34.915Z,6.50
2019-01-29T05:38:04.338Z,9.77
2019-01-29T05:40:33.784Z,7.40
2019-01-29T05:43:02.987Z,5.80
2019-01-29T05:45:32.307Z,9.80
2019-01-29T05:48:01.566Z,9.60
2019-01-29T05:50:30.844Z,9.30
2019-01-29T05:53:00.084Z,10.10
2019-01-29T05:55:29.351Z,6.73
2019-01-29T05:57:58.699Z,13.03
2019-01-29T06:00:33.167Z,5.07
2019-01-29T06:03:02.472Z,9.20
2019-01-29T06:05:31.913Z,15.10
2019-01-29T06:08:01.178Z,7.67
2019-01-29T06:10:30.401Z,5.37
2019-01-29T06:12:59.757Z,10.23
2019-01-29T06:15:29.150Z,7.07
2019-01-29T06:17:58.646Z,5.70
2019-01-29T06:20:28.624Z,7.27
2019-01-29T06:22:57.930Z,6.17
2019-01-29T06:25:27.202Z,8.00
2019-01-29T06:27:56.459Z,8.33
2019-01-29T06:30:26.130Z,8.37
2019-01-29T06:32:55.397Z,10.63
2019-01-29T06:35:24.750Z,7.40
2019-01-29T06:37:54.054Z,9.70
2019-01-29T06:40:25.257Z,7.53
2019-01-29T06:42:54.622Z,9.63
2019-01-29T06:45:24.340Z,9.47
2019-01-29T06:47:53.759Z,11.80
2019-01-29T06:50:24.827Z,8.83
2019-01-29T06:52:54.311Z,8.33
2019-01-29T06:55:23.964Z,11.03
2019-01-29T06:57:55.464Z,10.63
2019-01-29T07:00:29.306Z,9.73
2019-01-29T07:02:59.498Z,8.50
2019-01-29T07:05:28.935Z,8.33
2019-01-29T07:07:58.199Z,9.07
2019-01-29T07:10:28.279Z,9.80
2019-01-29T07:12:57.652Z,10.57
2019-01-29T07:15:45.541Z,11.47
2019-01-29T07:18:36.771Z,8.20
2019-01-29T07:21:09.088Z,11.13
2019-01-29T07:23:38.309Z,9.07
2019-01-29T07:26:07.560Z,7.07
2019-01-29T07:28:36.831Z,8.77
2019-01-29T07:31:06.379Z,10.77
2019-01-29T07:33:35.610Z,7.17
2019-01-29T07:36:04.867Z,6.37
2019-01-29T07:38:34.106Z,11.10
2019-01-29T07:41:03.820Z,8.07
2019-01-29T07:43:33.023Z,6.53
2019-01-29T07:46:02.279Z,6.77
2019-01-29T07:48:31.520Z,9.87
2019-01-29T07:51:00.791Z,8.87
2019-01-29T07:53:30.120Z,11.40
2019-01-29T07:55:59.424Z,12.83
2019-01-29T07:58:28.727Z,9.03
2019-01-29T08:00:58.039Z,9.90
2019-01-29T08:03:27.287Z,8.87
2019-01-29T08:05:57.290Z,10.47
2019-01-29T08:08:26.521Z,12.40
2019-01-29T08:10:55.771Z,9.10
2019-01-29T08:13:25.340Z,8.03
2019-01-29T08:15:54.608Z,7.93
2019-01-29T08:18:23.994Z,8.03
2019-01-29T08:20:53.252Z,10.13
2019-01-29T08:23:22.516Z,11.60
2019-01-29T08:25:51.891Z,6.80
2019-01-29T08:28:21.257Z,10.03
2019-01-29T08:30:50.754Z,7.30
2019-01-29T08:33:19.997Z,10.37
2019-01-29T08:35:49.267Z,7.33
2019-01-29T08:38:18.504Z,10.03
2019-01-29T08:40:47.755Z,6.47
2019-01-29T08:43:17.118Z,6.80
2019-01-29T08:45:46.438Z,9.63
2019-01-29T08:48:15.674Z,10.40
2019-01-29T08:50:44.956Z,10.50
2019-01-29T08:53:14.226Z,12.60
2019-01-29T08:55:43.486Z,8.87
2019-01-29T08:58:12.730Z,8.27
2019-01-29T09:00:42.052Z,9.87
2019-01-29T09:03:11.316Z,10.17
2019-01-29T09:05:40.778Z,14.53
2019-01-29T09:08:10.141Z,8.27
2019-01-29T09:10:39.479Z,10.43
2019-01-29T09:13:08.740Z,10.60
2019-01-29T09:15:38.008Z,12.03
2019-01-29T09:18:07.385Z,9.90
2019-01-29T09:20:36.764Z,16.53
2019-01-29T09:23:06.116Z,17.23
2019-01-29T09:25:35.433Z,12.27
2019-01-29T09:28:04.786Z,13.93
2019-01-29T09:30:34.163Z,10.07
2019-01-29T09:33:03.502Z,9.37
2019-01-29T09:39:01.686Z,11.30
2019-01-29T09:41:31.084Z,15.30
2019-01-29T09:44:00.365Z,11.80
2019-01-29T09:46:29.656Z,14.17
2019-01-29T09:48:58.935Z,17.07
2019-01-29T09:51:28.311Z,10.47
2019-01-29T09:54:13.065Z,13.73
2019-01-29T09:56:42.398Z,13.27
2019-01-29T09:59:11.750Z,11.37
2019-01-29T10:01:40.990Z,18.00
2019-01-29T10:04:10.401Z,14.23
2019-01-29T10:06:39.732Z,12.80
2019-01-29T10:09:09.937Z,11.50
2019-01-29T10:11:39.666Z,15.53
2019-01-29T10:14:08.955Z,10.17
2019-01-29T10:16:38.688Z,13.97
2019-01-29T10:19:08.178Z,14.53
2019-01-29T10:21:37.990Z,12.10
2019-01-29T10:24:07.305Z,13.87
2019-01-29T10:26:36.577Z,15.03
2019-01-29T10:29:06.115Z,13.60
2019-01-29T10:31:35.492Z,11.73
2019-01-29T10:34:05.084Z,12.47
2019-01-29T10:36:36.398Z,13.40
2019-01-29T10:39:09.606Z,11.90
2019-01-29T10:41:38.881Z,10.27
2019-01-29T10:44:08.214Z,12.43
2019-01-29T10:46:37.558Z,13.60
2019-01-29T10:49:06.886Z,10.67
2019-01-29T10:51:36.155Z,8.70
2019-01-29T10:54:05.640Z,12.53
2019-01-29T10:56:34.863Z,15.67
2019-01-29T10:59:04.227Z,8.97
2019-01-29T11:01:33.603Z,13.50
2019-01-29T11:04:02.941Z,7.17
2019-01-29T11:06:32.171Z,18.27
2019-01-29T11:09:01.444Z,9.40
2019-01-29T11:11:30.695Z,8.73
2019-01-29T11:14:00.035Z,10.50
2019-01-29T11:16:29.411Z,11.07
2019-01-29T11:19:03.408Z,12.47
2019-01-29T11:21:29.691Z,13.47
2019-01-29T11:23:58.994Z,14.57
2019-01-29T11:26:28.216Z,13.97
2019-01-29T11:28:57.468Z,10.47
2019-01-29T11:31:26.820Z,13.67
2019-01-29T11:33:56.166Z,11.27
2019-01-29T11:40:07.855Z,10.77
2019-01-29T11:42:37.165Z,14.00
2019-01-29T11:45:08.894Z,13.83
2019-01-29T11:47:38.131Z,12.40
2019-01-29T11:50:08.429Z,11.53
2019-01-29T11:52:37.661Z,13.20
2019-01-29T11:55:07.434Z,11.13
2019-01-29T11:57:36.832Z,14.50
2019-01-29T12:00:08.818Z,10.17
2019-01-29T12:02:38.213Z,12.33
2019-01-29T12:05:07.545Z,16.00
2019-01-29T12:07:36.751Z,12.67
2019-01-29T12:10:07.172Z,12.93
2019-01-29T12:12:36.541Z,14.40
2019-01-29T12:15:07.889Z,12.93
2019-01-29T12:17:37.134Z,11.30
2019-01-29T12:20:07.286Z,12.27
2019-01-29T12:22:36.553Z,12.67
2019-01-29T12:25:06.250Z,13.37
2019-01-29T12:27:36.657Z,12.60
2019-01-29T12:30:08.575Z,15.57
2019-01-29T12:32:37.832Z,15.03
2019-01-29T12:35:07.985Z,14.13
2019-01-29T12:37:37.212Z,10.27
2019-01-29T12:40:07.343Z,24.70
2019-01-29T12:42:36.592Z,12.17
2019-01-29T12:45:07.425Z,15.83
2019-01-29T12:47:36.681Z,15.60
2019-01-29T12:50:08.589Z,14.73
2019-01-29T12:52:46.541Z,12.30
2019-01-29T12:55:15.830Z,14.97
2019-01-29T12:57:45.301Z,16.13
2019-01-29T13:00:16.477Z,15.57
2019-01-29T13:02:45.863Z,18.70
2019-01-29T13:05:15.296Z,19.23
2019-01-29T13:07:44.644Z,13.60
2019-01-29T13:10:17.680Z,17.40
2019-01-29T13:12:47.034Z,15.50
2019-01-29T13:15:19.058Z,12.33
2019-01-29T13:17:48.487Z,13.90
2019-01-29T13:20:17.808Z,18.70
2019-01-29T13:22:47.085Z,16.20
2019-01-29T13:25:17.187Z,13.23
2019-01-29T13:27:46.552Z,14.03
2019-01-29T13:30:26.983Z,11.53
2019-01-29T13:32:56.262Z,14.50
2019-01-29T13:35:27.940Z,16.17
2019-01-29T13:37:57.214Z,13.10
2019-01-29T13:40:26.439Z,13.33
2019-01-29T13:42:55.791Z,15.07
2019-01-29T13:45:25.994Z,13.23
2019-01-29T13:47:56.428Z,18.27
2019-01-29T13:50:32.358Z,14.40
2019-01-29T13:53:02.153Z,12.63
2019-01-29T13:55:31.629Z,14.57
2019-01-29T13:58:00.947Z,14.37
2019-01-29T14:00:32.161Z,11.37
2019-01-29T14:03:02.200Z,10.57
2019-01-29T14:05:31.446Z,12.83
2019-01-29T14:08:00.763Z,9.47
2019-01-29T14:10:30.078Z,11.37
2019-01-29T14:12:59.477Z,14.17
2019-01-29T14:15:39.625Z,16.33
2019-01-29T14:18:09.316Z,12.07
2019-01-29T14:20:38.573Z,11.43
2019-01-29T14:23:09.161Z,12.27
2019-01-29T14:25:38.899Z,14.33
2019-01-29T14:28:08.700Z,13.03
2019-01-29T14:30:38.084Z,14.50
2019-01-29T14:33:08.506Z,23.90
2019-01-29T14:35:37.988Z,15.80
2019-01-29T14:38:43.367Z,13.47
2019-01-29T14:41:12.818Z,10.73
2019-01-29T14:43:45.419Z,16.60
2019-01-29T14:46:15.067Z,11.67
2019-01-29T14:48:44.558Z,12.63
2019-01-29T14:51:13.951Z,14.43
2019-01-29T14:53:43.531Z,14.47
2019-01-29T14:56:12.979Z,10.70
2019-01-29T14:58:42.402Z,12.10
2019-01-29T15:01:11.818Z,12.30
2019-01-29T15:03:41.083Z,14.70
2019-01-29T15:06:10.371Z,12.27
2019-01-29T15:12:08.396Z,10.00
2019-01-29T15:14:37.935Z,14.73
2019-01-29T15:17:25.043Z,12.43
2019-01-29T15:19:54.412Z,10.10
2019-01-29T15:22:23.705Z,9.87
2019-01-29T15:24:53.064Z,11.87
2019-01-29T15:27:23.697Z,10.33
2019-01-29T15:29:53.621Z,19.27
2019-01-29T15:32:23.082Z,12.47
2019-01-29T15:34:52.505Z,11.33
2019-01-29T15:37:21.990Z,17.80
2019-01-29T15:39:51.335Z,20.13
2019-01-29T15:42:20.877Z,13.30
2019-01-29T15:44:50.185Z,14.87
2019-01-29T15:47:19.565Z,10.03
2019-01-29T15:49:49.135Z,14.33
2019-01-29T15:52:18.383Z,13.03
2019-01-29T15:54:47.655Z,14.53
2019-01-29T15:57:17.026Z,14.70
2019-01-29T15:59:46.288Z,15.97
2019-01-29T16:02:15.600Z,12.87
2019-01-29T16:04:44.970Z,12.83
2019-01-29T16:07:14.313Z,16.60
2019-01-29T16:13:11.909Z,17.50
2019-01-29T16:16:05.074Z,17.97
2019-01-29T16:18:34.499Z,17.27
2019-01-29T16:21:03.875Z,34.67
2019-01-29T16:23:34.782Z,18.47
2019-01-29T16:26:05.130Z,20.63
2019-01-29T16:28:35.333Z,17.77
2019-01-29T16:31:05.696Z,20.03
2019-01-29T16:33:36.028Z,15.20
2019-01-29T16:36:06.277Z,16.93
2019-01-29T16:38:36.726Z,14.87
2019-01-29T16:41:06.026Z,18.67
2019-01-29T16:43:35.362Z,16.43
2019-01-29T16:46:04.661Z,15.63
2019-01-29T16:48:33.953Z,16.43
2019-01-29T16:51:03.245Z,17.50
2019-01-29T16:53:32.535Z,19.30
2019-01-29T16:57:14.082Z,24.63
2019-01-29T16:59:43.436Z,25.13
2019-01-29T17:02:33.807Z,31.23
2019-01-29T17:05:03.097Z,28.63
2019-01-29T17:07:33.008Z,28.37
2019-01-29T17:10:47.602Z,20.93
2019-01-29T17:13:16.966Z,22.10
2019-01-29T17:15:46.362Z,23.00
2019-01-29T17:18:15.692Z,20.93
2019-01-29T17:20:44.944Z,22.63
2019-01-29T17:23:14.454Z,24.77
2019-01-29T17:29:37.886Z,23.73
2019-01-29T17:32:07.125Z,17.20
2019-01-29T17:34:39.280Z,21.40
2019-01-29T17:37:08.947Z,16.87
2019-01-29T17:39:38.678Z,19.37
2019-01-29T17:42:08.071Z,18.60
2019-01-29T17:44:37.372Z,20.37
2019-01-29T17:47:06.677Z,20.43
2019-01-29T17:49:36.224Z,22.17
2019-01-29T17:52:05.596Z,22.20
2019-01-29T17:54:35.159Z,25.97
2019-01-29T17:57:05.168Z,19.83
2019-01-29T17:59:37.222Z,18.60
2019-01-29T18:02:18.181Z,17.80
2019-01-29T18:05:34.918Z,22.30
2019-01-29T18:08:05.523Z,20.93
2019-01-29T18:10:35.707Z,25.10
2019-01-29T18:13:05.600Z,22.93
2019-01-29T18:15:35.755Z,18.80
2019-01-29T18:18:05.763Z,22.97
2019-01-29T18:20:36.156Z,28.30
2019-01-29T18:23:06.159Z,30.03
2019-01-29T18:25:36.151Z,23.30
2019-01-29T18:28:08.453Z,21.10
2019-01-29T18:30:37.296Z,24.80
2019-01-29T18:33:07.787Z,23.87
2019-01-29T18:35:37.121Z,28.10
2019-01-29T18:38:06.439Z,27.93
2019-01-29T18:40:39.212Z,30.80
2019-01-29T18:43:08.614Z,31.07
2019-01-29T18:45:37.924Z,23.30
2019-01-29T18:48:07.448Z,19.23
2019-01-29T18:50:36.886Z,24.73
2019-01-29T18:53:06.416Z,25.00
2019-01-29T18:55:35.764Z,25.00
2019-01-29T18:58:11.404Z,25.50
2019-01-29T19:00:36.475Z,26.47
2019-01-29T19:03:06.208Z,25.17
2019-01-29T19:05:35.792Z,30.83
2019-01-29T19:08:05.150Z,33.97
2019-01-29T19:10:34.632Z,32.50
2019-01-29T19:13:03.863Z,31.67
2019-01-29T19:15:33.139Z,34.63
2019-01-29T19:18:02.453Z,28.77
2019-01-29T19:20:31.800Z,31.20
2019-01-29T19:23:01.258Z,28.27
2019-01-29T19:25:30.664Z,28.93
2019-01-29T19:28:09.230Z,25.83
2019-01-29T19:30:38.579Z,25.27
2019-01-29T19:33:08.057Z,25.60
2019-01-29T19:35:37.611Z,23.90
2019-01-29T19:38:06.965Z,27.13
2019-01-29T19:40:36.527Z,20.80
2019-01-29T19:43:05.962Z,21.57
2019-01-29T19:45:36.454Z,30.13
2019-01-29T19:48:07.405Z,23.57
2019-01-29T19:50:37.247Z,29.37
2019-01-29T19:56:34.819Z,30.73
2019-01-29T19:59:04.372Z,28.30
2019-01-29T20:01:34.423Z,26.90
2019-01-29T20:04:04.292Z,27.87
2019-01-29T20:06:34.145Z,26.10
2019-01-29T20:09:04.921Z,25.03
2019-01-29T20:11:34.555Z,27.10
2019-01-29T20:14:05.258Z,26.67
2019-01-29T20:16:34.733Z,29.00
2019-01-29T20:19:04.394Z,32.23
2019-01-29T20:21:33.985Z,31.53
2019-01-29T20:24:03.588Z,28.07
2019-01-29T20:26:33.072Z,27.23
2019-01-29T20:29:03.027Z,28.90
2019-01-29T20:31:32.787Z,29.20
2019-01-29T20:34:02.379Z,28.33
2019-01-29T20:36:32.123Z,28.87
2019-01-29T20:39:02.164Z,33.33
2019-01-29T20:41:31.797Z,27.67
2019-01-29T20:44:01.334Z,29.60
2019-01-29T20:46:31.414Z,35.03
2019-01-29T20:49:01.093Z,32.10
2019-01-29T20:51:30.683Z,33.53
2019-01-29T20:54:00.694Z,34.17
2019-01-29T20:56:30.340Z,27.90
2019-01-29T20:58:59.980Z,31.90
2019-01-29T21:01:29.669Z,36.07
2019-01-29T21:07:27.724Z,35.63
2019-01-29T21:09:57.381Z,40.03
2019-01-29T21:12:27.018Z,35.73
2019-01-29T21:14:56.656Z,34.43
2019-01-29T21:17:26.186Z,42.60
2019-01-29T21:19:55.925Z,38.13
2019-01-29T21:22:25.437Z,39.93
2019-01-29T21:24:55.445Z,31.37
2019-01-29T21:27:25.244Z,34.10
2019-01-29T21:29:54.657Z,29.80
2019-01-29T21:32:25.292Z,32.00
2019-01-29T21:34:55.001Z,28.80
2019-01-29T21:37:25.362Z,29.37
2019-01-29T21:39:55.275Z,29.33
2019-01-29T21:42:24.964Z,28.40
2019-01-29T21:44:54.342Z,33.37
2019-01-29T21:47:23.919Z,30.30
2019-01-29T21:53:22.222Z,29.30
2019-01-29T21:56:27.696Z,27.40
2019-01-29T21:58:57.194Z,28.57
2019-01-29T22:01:26.851Z,30.13
2019-01-29T22:03:56.235Z,29.23
2019-01-29T22:06:25.928Z,27.80
2019-01-29T22:08:55.307Z,33.00
2019-01-29T22:11:24.749Z,41.90
2019-01-29T22:13:54.150Z,34.17
2019-01-29T22:16:23.600Z,32.83
2019-01-29T22:18:52.932Z,31.10
2019-01-29T22:21:22.451Z,32.73
2019-01-29T22:23:52.045Z,33.37
2019-01-29T22:26:21.553Z,33.67
2019-01-29T22:28:50.945Z,36.57
2019-01-29T22:31:20.435Z,30.40
2019-01-29T22:33:49.765Z,37.27
2019-01-29T22:36:19.097Z,28.73
2019-01-29T22:38:48.705Z,29.63
2019-01-29T22:41:17.998Z,31.33
2019-01-29T22:43:47.417Z,31.67
2019-01-29T22:46:17.254Z,30.50
2019-01-29T22:49:34.908Z,36.60
2019-01-29T22:52:04.361Z,30.97
2019-01-29T22:54:33.641Z,34.03
2019-01-29T22:57:02.950Z,35.67
2019-01-29T22:59:33.388Z,37.60
2019-01-29T23:02:03.075Z,34.03
2019-01-29T23:04:35.882Z,34.27
2019-01-29T23:07:23.388Z,33.87
2019-01-29T23:09:52.770Z,32.27
2019-01-29T23:12:22.204Z,39.40
2019-01-29T23:14:51.512Z,28.50
2019-01-29T23:17:21.151Z,38.80
2019-01-29T23:19:50.472Z,36.07
2019-01-29T23:22:19.720Z,34.20
2019-01-29T23:24:49.103Z,37.13
2019-01-29T23:27:18.373Z,30.73
2019-01-29T23:29:47.740Z,33.60
2019-01-29T23:32:17.180Z,38.27
2019-01-29T23:34:46.540Z,33.37
2019-01-29T23:37:15.981Z,39.43
2019-01-29T23:39:45.310Z,35.27
2019-01-29T23:42:14.683Z,35.03
2019-01-29T23:44:44.040Z,37.83
2019-01-29T23:47:13.372Z,40.57
2019-01-29T23:49:42.698Z,34.07
2019-01-29T23:52:11.996Z,34.53
2019-01-29T23:54:41.235Z,32.00
2019-01-29T23:57:10.737Z,38.10
2019-01-29T23:59:39.971Z,34.07
